Time;durP1;ratioP1;P1;durP2;ratioP2;P2;SDS_P1;SDS_P2;PMS_P1;PMS_P2;Temp;Humidity;BMP_temperature;BMP_pressure;BME280_temperature;BME280_humidity;BME280_pressure;Samples;Min_cycle;Max_cycle;Signal;HPM_P1;HPM_P2
2023/05/17 00:00:46;;;;;;;;;8.00;4.00;;;;;14.89;52.71;102046.72;4958786;28;45487;-72
2023/05/17 00:03:12;;;;;;;;;6.67;4.67;;;;;14.96;52.68;102067.88;4967680;28;45393;-72
2023/05/17 00:05:37;;;;;;;;;4.00;4.00;;;;;14.84;52.88;102058.13;4969115;28;45419;-72
2023/05/17 00:08:03;;;;;;;;;7.67;5.67;;;;;14.76;52.71;102062.50;4960094;28;45552;-71
2023/05/17 00:10:28;;;;;;;;;4.33;4.33;;;;;14.61;52.94;102038.66;4957382;28;45537;-72
2023/05/17 00:12:54;;;;;;;;;4.33;4.33;;;;;14.55;52.84;102043.91;4956723;28;45318;-73
2023/05/17 00:15:20;;;;;;;;;6.67;5.33;;;;;14.48;52.97;102040.31;4958145;28;46026;-72
2023/05/17 00:17:45;;;;;;;;;8.00;6.67;;;;;14.52;52.89;102055.28;4957872;28;45497;-73
2023/05/17 00:20:11;;;;;;;;;6.00;5.00;;;;;14.58;53.38;102075.56;4955954;28;45393;-72
2023/05/17 00:22:37;;;;;;;;;9.00;6.00;;;;;14.45;53.22;102058.75;4956402;28;45350;-72
2023/05/17 00:25:03;;;;;;;;;8.00;6.00;;;;;14.49;53.30;102076.31;4960291;28;45558;-71
2023/05/17 00:27:28;;;;;;;;;7.33;5.00;;;;;14.47;53.69;102064.88;4957090;28;45403;-71
2023/05/17 00:29:54;;;;;;;;;5.00;3.67;;;;;14.38;53.38;102055.19;4954615;28;45509;-71
2023/05/17 00:32:19;;;;;;;;;5.67;5.67;;;;;14.33;53.19;102051.63;4957065;28;45873;-70
2023/05/17 00:34:45;;;;;;;;;6.00;6.00;;;;;14.36;53.67;102058.69;4956646;28;45425;-71
2023/05/17 00:37:10;;;;;;;;;7.00;4.00;;;;;14.38;53.60;102071.00;4954822;28;45514;-70
2023/05/17 00:39:36;;;;;;;;;5.00;5.00;;;;;14.38;53.77;102073.63;4959099;28;45471;-71
2023/05/17 00:42:03;;;;;;;;;5.33;5.33;;;;;14.25;53.40;102041.88;4958221;28;45545;-71
2023/05/17 00:44:28;;;;;;;;;8.00;5.67;;;;;14.37;53.04;102069.22;4960450;28;46088;-70
2023/05/17 00:46:54;;;;;;;;;5.00;5.00;;;;;14.32;53.34;102064.78;4954844;28;45774;-70
2023/05/17 00:49:20;;;;;;;;;5.67;5.00;;;;;14.31;53.36;102071.81;4955073;28;45362;-70
2023/05/17 00:51:45;;;;;;;;;6.00;6.00;;;;;14.25;53.41;102063.84;4965681;28;45482;-70
2023/05/17 00:54:11;;;;;;;;;5.00;5.00;;;;;14.27;53.77;102072.66;4962173;28;45742;-69
2023/05/17 00:56:37;;;;;;;;;3.00;3.00;;;;;14.24;53.67;102072.63;4959885;28;45286;-70
2023/05/17 00:59:05;;;;;;;;;7.00;5.33;;;;;14.26;54.34;102070.91;4957651;28;45702;-70
2023/05/17 01:01:32;;;;;;;;;5.00;5.00;;;;;14.20;53.99;102058.53;4955415;28;45878;-71
2023/05/17 01:03:58;;;;;;;;;4.33;4.33;;;;;14.18;53.95;102057.63;4954220;28;47247;-70
2023/05/17 01:06:24;;;;;;;;;8.00;6.33;;;;;14.18;54.21;102062.91;4953948;28;45942;-70
2023/05/17 01:08:50;;;;;;;;;5.00;5.00;;;;;14.24;53.90;102066.47;4955518;28;45478;-71
2023/05/17 01:11:34;;;;;;;;;5.00;4.67;;;;;14.26;53.99;102060.34;4956474;28;45634;-71
2023/05/17 01:14:31;;;;;;;;;6.67;4.33;;;;;14.24;54.08;102059.47;4937379;28;45927;-70
2023/05/17 01:17:03;;;;;;;;;4.00;4.00;;;;;14.28;53.36;102055.94;4936571;28;45387;-70
2023/05/17 01:19:56;;;;;;;;;7.33;6.00;;;;;14.29;53.63;102063.00;4939144;28;45649;-70
2023/05/17 01:22:27;;;;;;;;;7.67;5.33;;;;;14.26;53.90;102059.44;4936295;28;45382;-71
2023/05/17 01:25:22;;;;;;;;;5.33;4.00;;;;;14.26;54.15;102060.34;4934048;28;46672;-71
2023/05/17 01:27:49;;;;;;;;;4.00;4.00;;;;;14.18;53.65;102048.84;4936221;28;45416;-70
2023/05/17 01:30:17;;;;;;;;;6.00;5.00;;;;;14.24;54.03;102061.19;4937995;28;45501;-72
2023/05/17 01:32:44;;;;;;;;;8.67;4.00;;;;;14.15;53.90;102051.47;4936533;28;45477;-71
2023/05/17 01:35:11;;;;;;;;;4.33;4.33;;;;;14.07;53.78;102032.06;4937377;28;47874;-72
2023/05/17 01:37:40;;;;;;;;;5.33;5.33;;;;;14.23;53.89;102064.72;4935197;28;45606;-71
2023/05/17 01:40:08;;;;;;;;;6.33;6.00;;;;;14.14;54.09;102054.97;4935013;28;45434;-71
2023/05/17 01:42:38;;;;;;;;;9.67;7.00;;;;;14.16;54.13;102062.00;4935022;28;45561;-71
2023/05/17 01:45:20;;;;;;;;;5.00;5.00;;;;;14.17;54.21;102066.44;4945381;28;45698;-72
2023/05/17 01:48:10;;;;;;;;;4.00;4.00;;;;;13.98;54.56;102035.53;4957759;28;45492;-71
2023/05/17 01:50:38;;;;;;;;;6.00;6.00;;;;;13.94;55.01;102054.81;4958087;28;45345;-72
2023/05/17 01:53:19;;;;;;;;;9.33;6.00;;;;;13.88;55.33;102047.75;4971772;28;45425;-71
2023/05/17 01:55:55;;;;;;;;;6.00;4.33;;;;;13.89;55.47;102049.50;4976644;28;46591;-71
2023/05/17 01:58:24;;;;;;;;;5.00;4.00;;;;;13.89;55.33;102052.13;4974522;28;45643;-71
2023/05/17 02:00:54;;;;;;;;;7.00;7.00;;;;;13.86;55.65;102057.38;4973578;28;45441;-71
2023/05/17 02:03:20;;;;;;;;;9.33;6.00;;;;;13.78;55.88;102041.47;4974367;28;45512;-71
2023/05/17 02:05:46;;;;;;;;;4.33;4.33;;;;;13.83;55.03;102044.16;4974290;28;45554;-71
2023/05/17 02:08:13;;;;;;;;;4.00;4.00;;;;;13.87;55.58;102039.81;4976593;28;45339;-70
2023/05/17 02:10:38;;;;;;;;;6.67;5.67;;;;;13.96;55.41;102056.56;4973422;28;45517;-71
2023/05/17 02:13:04;;;;;;;;;6.33;5.00;;;;;13.98;55.00;102052.22;4972475;28;45846;-71
2023/05/17 02:15:31;;;;;;;;;6.00;5.00;;;;;14.00;55.63;102053.13;4974337;28;46374;-71
2023/05/17 02:18:00;;;;;;;;;7.00;5.00;;;;;14.02;55.40;102047.84;4974236;28;45743;-70
2023/05/17 02:20:25;;;;;;;;;10.67;6.00;;;;;14.05;55.16;102054.88;4974442;28;45515;-71
2023/05/17 02:22:51;;;;;;;;;7.33;6.00;;;;;14.01;55.29;102046.09;4973911;28;45591;-71
2023/05/17 02:25:17;;;;;;;;;6.33;5.67;;;;;14.02;55.23;102054.88;4973835;28;46221;-70
2023/05/17 02:27:43;;;;;;;;;11.67;7.00;;;;;13.86;55.83;102035.44;4977725;28;45911;-71
2023/05/17 02:30:09;;;;;;;;;9.00;5.00;;;;;13.94;55.03;102053.03;4975865;28;45463;-71
2023/05/17 02:32:34;;;;;;;;;9.67;6.67;;;;;13.93;55.70;102055.69;4974387;28;45419;-71
2023/05/17 02:35:00;;;;;;;;;6.00;6.00;;;;;14.03;55.74;102069.81;4976153;28;45699;-71
2023/05/17 02:37:26;;;;;;;;;8.00;7.00;;;;;14.04;55.62;102074.19;4978081;28;45334;-71
2023/05/17 02:39:53;;;;;;;;;10.00;9.00;;;;;13.90;55.41;102058.28;4976997;28;45625;-70
2023/05/17 02:42:19;;;;;;;;;12.67;7.67;;;;;13.91;56.07;102073.22;4976086;28;45357;-72
2023/05/17 02:44:44;;;;;;;;;11.00;8.67;;;;;13.92;56.05;102080.25;4974026;28;46079;-70
2023/05/17 02:47:10;;;;;;;;;9.67;6.67;;;;;13.81;55.90;102061.72;4973454;28;45540;-70
2023/05/17 02:49:36;;;;;;;;;8.00;5.67;;;;;13.90;55.55;102072.31;4976382;28;45517;-71
2023/05/17 02:52:02;;;;;;;;;8.00;6.33;;;;;13.77;56.45;102054.66;4965324;28;45726;-71
2023/05/17 02:54:28;;;;;;;;;8.33;7.33;;;;;13.68;56.15;102054.56;4954478;28;45413;-71
2023/05/17 02:56:53;;;;;;;;;10.00;8.00;;;;;13.74;56.33;102075.69;4954114;28;45452;-70
2023/05/17 02:59:19;;;;;;;;;6.67;6.67;;;;;13.73;56.35;102076.53;4954177;28;45580;-70
2023/05/17 03:01:45;;;;;;;;;7.67;5.67;;;;;13.78;56.51;102078.34;4954417;28;45385;-72
2023/05/17 03:04:13;;;;;;;;;8.00;7.00;;;;;13.76;55.92;102069.56;4954091;28;45967;-71
2023/05/17 03:06:39;;;;;;;;;7.33;6.67;;;;;13.86;55.84;102077.56;4954542;28;45302;-71
2023/05/17 03:09:05;;;;;;;;;9.00;5.33;;;;;13.87;56.05;102087.22;4954143;28;45249;-71
2023/05/17 03:11:31;;;;;;;;;5.00;4.67;;;;;13.80;56.30;102073.09;4957439;28;45592;-70
2023/05/17 03:13:57;;;;;;;;;6.00;6.00;;;;;13.82;55.68;102074.00;4955866;28;45508;-70
2023/05/17 03:16:23;;;;;;;;;7.33;7.00;;;;;13.83;55.86;102072.25;4959210;28;45413;-71
2023/05/17 03:18:48;;;;;;;;;6.67;6.67;;;;;13.86;56.32;102069.66;4959923;28;45450;-70
2023/05/17 03:21:14;;;;;;;;;10.67;9.00;;;;;13.82;55.73;102074.00;4961732;28;45499;-70
2023/05/17 03:23:40;;;;;;;;;11.67;9.33;;;;;13.75;56.21;102072.19;4957616;28;46172;-71
2023/05/17 03:26:06;;;;;;;;;11.33;9.33;;;;;13.81;56.56;102085.41;4956137;28;45285;-72
2023/05/17 03:28:33;;;;;;;;;11.67;9.33;;;;;13.69;56.42;102073.00;4957896;28;45361;-71
2023/05/17 03:30:59;;;;;;;;;10.00;8.00;;;;;13.70;56.92;102082.66;4961382;28;45440;-71
2023/05/17 03:33:25;;;;;;;;;10.00;8.33;;;;;13.57;56.52;102065.88;4959771;28;47849;-71
2023/05/17 03:35:50;;;;;;;;;9.00;8.33;;;;;13.68;56.88;102081.75;4958214;28;45523;-71
2023/05/17 03:38:16;;;;;;;;;9.67;8.33;;;;;13.61;56.88;102074.66;4956699;28;45457;-71
2023/05/17 03:40:45;;;;;;;;;13.25;11.50;;;;;13.52;57.12;102064.91;4961092;28;45440;-70
2023/05/17 03:43:10;;;;;;;;;14.00;10.00;;;;;13.31;57.49;102033.06;4960058;28;47025;-71
2023/05/17 03:45:36;;;;;;;;;11.67;10.00;;;;;13.60;57.53;102087.81;4961083;28;45478;-72
2023/05/17 03:48:01;;;;;;;;;13.75;8.50;;;;;13.56;57.42;102084.25;4959666;28;45413;-72
2023/05/17 03:50:27;;;;;;;;;14.33;11.67;;;;;13.27;58.50;102066.38;4958244;28;45450;-73
2023/05/17 03:52:52;;;;;;;;;16.75;12.00;;;;;13.21;58.43;102053.09;4971377;28;47819;-71
2023/05/17 03:55:18;;;;;;;;;15.00;12.50;;;;;13.34;58.53;102085.75;4979876;28;45418;-71
2023/05/17 03:57:44;;;;;;;;;15.00;13.00;;;;;13.40;58.36;102098.97;4978727;28;45397;-70
2023/05/17 04:00:11;;;;;;;;;18.25;13.50;;;;;13.40;58.52;102096.34;4979965;28;45614;-70
2023/05/17 04:02:37;;;;;;;;;14.25;11.50;;;;;13.39;58.77;102105.13;4977319;28;46606;-70
2023/05/17 04:05:03;;;;;;;;;12.25;12.00;;;;;13.39;58.52;102109.50;4974414;28;45444;-70
2023/05/17 04:07:29;;;;;;;;;17.50;16.75;;;;;13.30;58.25;102100.63;4976559;28;45478;-70
2023/05/17 04:10:01;;;;;;;;;20.25;18.00;;;;;13.34;59.21;102109.44;4976378;28;45404;-70
2023/05/17 04:12:27;;;;;;;;;16.00;15.50;;;;;13.36;59.25;102118.25;4977328;28;45348;-70
2023/05/17 04:14:53;;;;;;;;;25.50;20.75;;;;;13.37;59.36;102117.38;4978762;28;45472;-70
2023/05/17 04:17:19;;;;;;;;;20.25;17.25;;;;;13.33;58.97;102115.56;4980168;28;45360;-70
2023/05/17 04:19:45;;;;;;;;;16.50;14.25;;;;;13.28;59.05;102110.22;4980011;28;45427;-71
2023/05/17 04:22:10;;;;;;;;;18.50;15.75;;;;;13.37;59.04;102120.00;4979087;28;45981;-71
2023/05/17 04:24:36;;;;;;;;;18.25;15.25;;;;;13.44;58.75;102129.75;4974329;28;45399;-69
2023/05/17 04:27:03;;;;;;;;;17.50;15.25;;;;;13.45;58.99;102139.41;4974238;28;45849;-72
2023/05/17 04:29:29;;;;;;;;;18.25;13.25;;;;;13.40;59.13;102127.94;4976214;28;45647;-69
2023/05/17 04:31:55;;;;;;;;;18.50;17.75;;;;;13.32;58.79;102112.06;4976111;28;47692;-70
2023/05/17 04:34:23;;;;;;;;;16.75;13.75;;;;;13.44;58.75;102145.53;4978058;28;45455;-70
2023/05/17 04:36:49;;;;;;;;;22.25;16.00;;;;;13.43;58.80;102142.88;4976064;28;45880;-70
2023/05/17 04:39:16;;;;;;;;;17.75;14.75;;;;;13.36;59.20;102129.66;4974168;28;45511;-72
2023/05/17 04:41:45;;;;;;;;;18.50;15.75;;;;;13.47;59.00;102153.47;4975041;28;45639;-72
2023/05/17 04:44:11;;;;;;;;;15.75;13.75;;;;;13.47;58.96;102153.47;4973484;28;45408;-71
2023/05/17 04:46:37;;;;;;;;;21.25;15.50;;;;;13.51;58.90;102157.03;4973766;28;45830;-72
2023/05/17 04:49:03;;;;;;;;;18.75;12.50;;;;;13.53;58.37;102148.28;4974120;28;45507;-70
2023/05/17 04:51:29;;;;;;;;;18.25;16.00;;;;;13.48;58.35;102147.34;4968751;28;46632;-71
2023/05/17 04:53:55;;;;;;;;;14.50;14.00;;;;;13.58;58.46;102164.13;4959598;28;45313;-71
2023/05/17 04:56:21;;;;;;;;;15.75;15.00;;;;;13.35;58.25;102124.34;4960177;28;45350;-71
2023/05/17 04:58:47;;;;;;;;;18.50;16.75;;;;;13.49;58.61;102146.47;4960197;28;45338;-71
2023/05/17 05:01:13;;;;;;;;;20.00;15.50;;;;;13.66;57.98;102166.84;4956354;28;45586;-70
2023/05/17 05:03:39;;;;;;;;;18.75;15.75;;;;;13.70;57.88;102166.91;4955972;28;45772;-71
2023/05/17 05:06:05;;;;;;;;;17.00;13.25;;;;;13.72;57.60;102167.81;4957651;28;45626;-71
2023/05/17 05:08:33;;;;;;;;;18.50;16.25;;;;;13.77;57.99;102175.78;4953222;28;45546;-72
2023/05/17 05:11:03;;;;;;;;;14.75;11.50;;;;;13.82;57.93;102179.34;4956331;28;45523;-71
2023/05/17 05:13:32;;;;;;;;;15.00;13.00;;;;;13.63;57.21;102141.38;4956043;28;45496;-72
2023/05/17 05:16:04;;;;;;;;;17.50;14.25;;;;;13.91;57.26;102186.47;4955056;28;45285;-71
2023/05/17 05:18:30;;;;;;;;;15.50;15.25;;;;;13.83;57.50;102169.69;4959280;28;45398;-70
2023/05/17 05:20:55;;;;;;;;;16.00;14.00;;;;;13.99;57.01;102198.84;4959028;28;45642;-71
2023/05/17 05:23:21;;;;;;;;;19.25;16.25;;;;;14.04;56.61;102196.25;4957720;28;45531;-71
2023/05/17 05:25:47;;;;;;;;;17.25;11.75;;;;;13.97;57.00;102173.34;4959006;28;45523;-71
2023/05/17 05:28:13;;;;;;;;;19.50;14.75;;;;;14.04;56.43;102174.31;4958062;28;45416;-72
2023/05/17 05:30:39;;;;;;;;;18.50;14.00;;;;;14.20;56.40;102192.03;4953577;28;45853;-71
2023/05/17 05:33:04;;;;;;;;;14.33;12.00;;;;;14.26;56.08;102197.41;4953556;28;45638;-71
2023/05/17 05:35:33;;;;;;;;;18.75;17.50;;;;;14.23;56.21;102186.81;4953607;28;45474;-71
2023/05/17 05:38:00;;;;;;;;;18.00;16.50;;;;;14.23;56.19;102197.34;4956058;28;46212;-71
2023/05/17 05:40:26;;;;;;;;;24.50;20.75;;;;;14.11;56.30;102190.19;4958620;28;45881;-71
2023/05/17 05:42:52;;;;;;;;;19.75;15.75;;;;;14.27;55.75;102206.19;4956842;28;45460;-71
2023/05/17 05:45:18;;;;;;;;;17.75;15.75;;;;;14.36;55.48;102207.16;4958068;28;45818;-71
2023/05/17 05:47:47;;;;;;;;;23.00;20.50;;;;;14.31;55.59;102208.88;4954978;28;45447;-72
2023/05/17 05:50:14;;;;;;;;;24.75;20.50;;;;;14.23;55.69;102207.88;4954235;28;45542;-72
2023/05/17 05:52:40;;;;;;;;;22.25;16.50;;;;;13.95;55.75;102169.81;4968936;28;45379;-72
2023/05/17 05:55:06;;;;;;;;;15.00;15.00;;;;;14.32;55.73;102218.53;4976132;28;45427;-72
2023/05/17 05:57:32;;;;;;;;;29.00;22.50;;;;;14.12;55.08;102177.94;4978082;28;45982;-70
2023/05/17 05:59:58;;;;;;;;;23.75;20.25;;;;;14.71;55.13;102222.47;4965869;28;45736;-71
2023/05/17 06:02:23;;;;;;;;;17.75;14.75;;;;;15.20;53.27;102214.88;4952263;28;45524;-72
2023/05/17 06:04:49;;;;;;;;;16.00;12.67;;;;;14.98;53.60;102186.59;4954384;28;45781;-72
2023/05/17 06:07:16;;;;;;;;;25.75;14.50;;;;;15.00;53.28;102219.16;4954199;28;45436;-72
2023/05/17 06:09:50;;;;;;;;;20.75;18.25;;;;;14.84;53.59;102237.50;4956659;28;45450;-70
2023/05/17 06:12:16;;;;;;;;;21.75;17.50;;;;;14.73;54.15;102225.97;4958165;28;45377;-71
2023/05/17 06:14:45;;;;;;;;;24.00;21.00;;;;;14.57;54.15;102224.97;4953722;28;45583;-73
2023/05/17 06:17:10;;;;;;;;;15.50;15.50;;;;;14.74;54.25;102238.28;4954645;28;45579;-72
2023/05/17 06:19:36;;;;;;;;;19.33;16.00;;;;;14.63;54.12;102203.91;4953892;28;45669;-71
2023/05/17 06:22:02;;;;;;;;;15.33;14.00;;;;;14.92;53.70;102234.03;4953941;28;45491;-72
2023/05/17 06:24:28;;;;;;;;;14.67;13.67;;;;;15.06;53.06;102245.56;4953688;28;45716;-71
2023/05/17 06:26:54;;;;;;;;;13.00;12.67;;;;;15.05;53.15;102228.88;4950030;28;45502;-72
2023/05/17 06:29:19;;;;;;;;;22.50;16.50;;;;;15.22;52.12;102254.50;4953975;28;46088;-71
2023/05/17 06:31:45;;;;;;;;;22.25;17.00;;;;;15.13;52.53;102250.03;4953451;28;45472;-72
2023/05/17 06:34:14;;;;;;;;;15.67;15.67;;;;;14.99;52.25;102220.03;4956803;28;45713;-72
2023/05/17 06:36:40;;;;;;;;;18.67;17.33;;;;;15.17;52.79;102241.28;4951398;28;45584;-71
2023/05/17 06:39:06;;;;;;;;;22.67;19.67;;;;;14.77;51.61;102185.56;4953207;28;45509;-72
2023/05/17 06:41:33;;;;;;;;;16.00;12.67;;;;;15.20;52.10;102248.31;4953176;28;45433;-72
2023/05/17 06:44:08;;;;;;;;;12.67;11.33;;;;;15.30;51.86;102249.25;4953495;28;45316;-71
2023/05/17 06:46:34;;;;;;;;;15.33;11.33;;;;;15.32;51.97;102229.91;4951722;28;45320;-73
2023/05/17 06:49:00;;;;;;;;;7.67;5.00;;;;;15.56;50.99;102246.78;4957886;28;46155;-72
2023/05/17 06:51:26;;;;;;;;;17.67;17.33;;;;;15.59;50.83;102242.41;4962188;28;45388;-71
2023/05/17 06:53:51;;;;;;;;;24.67;18.33;;;;;15.47;50.76;102222.09;4961780;28;45480;-72
2023/05/17 06:56:17;;;;;;;;;15.00;14.33;;;;;15.61;51.22;102226.56;4961473;28;45531;-72
2023/05/17 06:58:45;;;;;;;;;22.33;19.00;;;;;15.79;50.54;102246.94;4961366;28;45533;-72
2023/05/17 07:01:15;;;;;;;;;17.67;15.67;;;;;15.86;49.91;102259.28;4959801;28;45468;-71
2023/05/17 07:03:44;;;;;;;;;17.00;15.33;;;;;15.69;49.54;102236.28;4961260;28;45595;-72
2023/05/17 07:06:09;;;;;;;;;15.00;12.33;;;;;15.87;49.12;102263.69;4960849;28;45453;-72
2023/05/17 07:08:35;;;;;;;;;13.67;11.00;;;;;15.62;48.64;102258.25;4960543;28;45466;-72
2023/05/17 07:11:01;;;;;;;;;9.00;8.33;;;;;15.48;48.83;102270.50;4959665;28;45486;-72
2023/05/17 07:13:27;;;;;;;;;13.67;9.00;;;;;15.35;48.93;102250.16;4956894;28;46073;-72
2023/05/17 07:15:53;;;;;;;;;14.33;9.00;;;;;15.45;49.75;102270.50;4956991;28;45877;-72
2023/05/17 07:18:20;;;;;;;;;8.00;8.00;;;;;15.62;49.50;102271.47;4957471;28;46080;-72
2023/05/17 07:20:46;;;;;;;;;13.33;11.33;;;;;15.67;49.45;102253.00;4959732;28;45441;-73
2023/05/17 07:23:11;;;;;;;;;15.67;10.67;;;;;15.88;49.13;102262.84;4956728;28;45504;-71
2023/05/17 07:25:41;;;;;;;;;9.33;7.33;;;;;16.09;49.36;102276.13;4956772;28;45908;-73
2023/05/17 07:28:07;;;;;;;;;10.67;8.00;;;;;16.22;48.70;102279.69;4958594;28;46211;-71
2023/05/17 07:30:33;;;;;;;;;13.67;11.67;;;;;16.31;48.43;102273.56;4954467;28;45632;-72
2023/05/17 07:32:59;;;;;;;;;8.00;6.00;;;;;16.33;47.99;102253.28;4956993;28;45507;-70
2023/05/17 07:35:25;;;;;;;;;9.33;8.00;;;;;16.43;47.70;102268.28;4956687;28;45437;-71
2023/05/17 07:37:50;;;;;;;;;13.00;8.00;;;;;16.62;47.49;102281.56;4952016;28;47725;-72
2023/05/17 07:40:16;;;;;;;;;10.00;9.00;;;;;16.47;47.39;102291.22;4957844;28;45494;-72
2023/05/17 07:42:42;;;;;;;;;9.00;8.67;;;;;16.31;47.92;102244.47;4955155;28;45481;-72
2023/05/17 07:45:08;;;;;;;;;9.33;6.33;;;;;16.65;47.62;102293.00;4955617;28;45642;-71
2023/05/17 07:47:34;;;;;;;;;10.33;7.33;;;;;16.69;47.09;102283.31;4955184;28;47662;-72
2023/05/17 07:49:59;;;;;;;;;14.00;10.67;;;;;16.59;45.80;102270.97;4957573;28;45450;-71
2023/05/17 07:52:25;;;;;;;;;12.33;9.00;;;;;16.20;46.55;102272.63;4969532;28;45480;-72
2023/05/17 07:54:50;;;;;;;;;9.33;7.33;;;;;16.11;46.64;102244.41;4975903;28;45553;-72
2023/05/17 07:57:16;;;;;;;;;9.00;6.00;;;;;16.34;46.64;102262.97;4955327;28;47647;-72
2023/05/17 07:59:41;;;;;;;;;8.00;6.00;;;;;16.48;46.40;102268.31;4955988;28;45850;-72
2023/05/17 08:02:08;;;;;;;;;10.33;8.67;;;;;16.56;46.96;102271.81;4958136;28;45379;-72
2023/05/17 08:04:34;;;;;;;;;8.33;7.67;;;;;16.72;46.11;102283.31;4956358;28;45434;-72
2023/05/17 08:07:01;;;;;;;;;14.00;12.00;;;;;16.60;45.12;102278.91;4943252;28;47646;-71
2023/05/17 08:09:32;;;;;;;;;15.67;12.33;;;;;16.48;46.02;102285.03;4936838;28;45576;-72
2023/05/17 08:12:01;;;;;;;;;10.00;8.67;;;;;16.50;46.49;102280.66;4937302;28;45430;-73
2023/05/17 08:14:30;;;;;;;;;12.33;10.67;;;;;16.61;46.56;102263.91;4952501;28;45994;-73
2023/05/17 08:16:58;;;;;;;;;13.00;12.00;;;;;16.71;46.70;102279.81;4936749;28;46177;-71
2023/05/17 08:19:25;;;;;;;;;10.00;10.00;;;;;16.77;46.22;102273.63;4954364;28;45525;-72
2023/05/17 08:21:50;;;;;;;;;5.33;5.33;;;;;16.92;46.39;102286.91;4947078;28;45664;-72
2023/05/17 08:24:16;;;;;;;;;10.00;9.67;;;;;16.94;46.47;102273.66;4957355;28;45590;-72
2023/05/17 08:26:45;;;;;;;;;14.00;10.00;;;;;17.07;46.15;102266.63;4958640;28;45698;-72
2023/05/17 08:29:11;;;;;;;;;15.33;8.67;;;;;17.19;45.94;102284.25;4954990;28;45507;-72
2023/05/17 08:31:36;;;;;;;;;10.33;8.67;;;;;17.26;46.04;102286.91;4956085;28;45524;-72
2023/05/17 08:34:02;;;;;;;;;7.67;7.67;;;;;17.27;46.06;102272.75;4955169;28;45416;-72
2023/05/17 08:36:28;;;;;;;;;9.33;7.67;;;;;17.19;45.67;102250.72;4956072;28;45463;-71
2023/05/17 08:38:54;;;;;;;;;10.33;8.33;;;;;17.50;44.58;102290.38;4955851;28;45498;-72
2023/05/17 08:41:20;;;;;;;;;9.00;6.00;;;;;17.48;45.19;102271.84;4960172;28;45488;-72
2023/05/17 08:43:47;;;;;;;;;12.67;9.33;;;;;17.58;44.57;102278.00;4960696;28;45435;-72
2023/05/17 08:46:20;;;;;;;;;15.00;11.67;;;;;17.40;44.79;102259.53;4960022;28;45417;-72
2023/05/17 08:48:46;;;;;;;;;9.67;8.67;;;;;17.58;44.87;102272.69;4959864;28;45397;-73
2023/05/17 08:51:15;;;;;;;;;11.33;9.33;;;;;17.34;44.18;102229.50;4962813;28;45362;-72
2023/05/17 08:53:41;;;;;;;;;12.33;10.33;;;;;17.43;43.85;102239.19;4978277;28;45402;-72
2023/05/17 08:56:10;;;;;;;;;10.00;8.67;;;;;17.59;43.80;102263.88;4974750;28;46781;-72
2023/05/17 08:58:37;;;;;;;;;8.67;6.00;;;;;17.73;43.64;102274.44;4974943;28;45385;-73
2023/05/17 09:01:06;;;;;;;;;10.67;7.67;;;;;17.72;42.20;102260.28;4974998;28;45435;-73
2023/05/17 09:03:34;;;;;;;;;11.00;9.00;;;;;17.69;41.80;102252.34;4975418;28;45349;-73
2023/05/17 09:05:59;;;;;;;;;12.33;7.33;;;;;17.55;40.41;102263.00;4973548;28;47955;-72
2023/05/17 09:08:27;;;;;;;;;7.33;7.33;;;;;17.48;41.33;102260.38;4974790;28;45554;-73
2023/05/17 09:10:53;;;;;;;;;9.33;7.33;;;;;17.41;41.69;102258.63;4975025;28;45511;-72
2023/05/17 09:13:18;;;;;;;;;8.00;7.00;;;;;17.49;41.45;102265.69;4979537;28;45502;-71
2023/05/17 09:15:46;;;;;;;;;9.67;6.67;;;;;17.55;40.88;102270.06;4978918;28;46176;-73
2023/05/17 09:18:13;;;;;;;;;10.33;7.33;;;;;17.49;40.56;102251.56;4974612;28;45668;-72
2023/05/17 09:20:39;;;;;;;;;11.00;8.67;;;;;17.47;40.03;102258.63;4974544;28;45479;-72
2023/05/17 09:23:08;;;;;;;;;7.67;6.67;;;;;17.14;40.61;102234.84;4974532;28;45542;-70
2023/05/17 09:25:34;;;;;;;;;8.67;7.33;;;;;17.20;41.48;102268.34;4974993;28;46437;-72
2023/05/17 09:28:06;;;;;;;;;14.00;8.67;;;;;17.20;42.01;102263.06;4977247;28;45420;-73
2023/05/17 09:30:36;;;;;;;;;10.00;9.00;;;;;17.14;41.96;102265.72;4977221;28;45537;-73
2023/05/17 09:33:06;;;;;;;;;8.00;8.00;;;;;16.95;40.70;102263.09;4974430;28;45375;-72
2023/05/17 09:35:33;;;;;;;;;10.00;6.33;;;;;16.82;41.85;102276.31;4976103;28;45569;-72
2023/05/17 09:38:17;;;;;;;;;9.33;7.00;;;;;16.79;43.16;102263.97;4978801;28;45407;-72
2023/05/17 09:40:45;;;;;;;;;11.33;6.00;;;;;16.98;43.41;102269.25;4978741;28;45416;-73
2023/05/17 09:43:15;;;;;;;;;7.33;7.33;;;;;17.05;41.01;102260.44;4977434;28;45298;-73
2023/05/17 09:45:42;;;;;;;;;10.00;7.67;;;;;17.00;41.69;102278.09;4977185;28;45436;-72
2023/05/17 09:48:12;;;;;;;;;7.67;6.67;;;;;17.11;43.45;102260.44;4972390;28;45408;-72
2023/05/17 09:50:45;;;;;;;;;11.00;7.00;;;;;17.05;42.24;102233.97;4976974;28;45538;-73
2023/05/17 09:53:30;;;;;;;;;7.33;5.00;;;;;17.38;42.99;102264.81;4977399;28;45573;-71
2023/05/17 09:56:00;;;;;;;;;5.33;5.00;;;;;17.40;42.28;102238.34;4976037;28;48060;-71
2023/05/17 09:58:27;;;;;;;;;7.33;6.00;;;;;17.52;41.63;102233.00;4974321;28;45562;-70
2023/05/17 10:00:59;;;;;;;;;5.00;5.00;;;;;17.81;41.11;102254.13;4976384;28;45397;-71
2023/05/17 10:03:29;;;;;;;;;8.33;7.00;;;;;17.74;40.39;102242.63;4977159;28;45424;-72
2023/05/17 10:05:54;;;;;;;;;9.67;6.67;;;;;17.70;39.57;102254.13;4972564;28;46680;-73
2023/05/17 10:08:26;;;;;;;;;7.33;7.33;;;;;17.48;39.66;102258.59;4968536;28;45703;-72
2023/05/17 10:11:02;;;;;;;;;7.67;6.67;;;;;17.34;39.80;102263.03;4971219;28;45456;-72
2023/05/17 10:13:53;;;;;;;;;10.00;6.00;;;;;17.24;40.26;102256.00;4968034;28;45411;-72
2023/05/17 10:16:21;;;;;;;;;9.33;8.00;;;;;17.45;40.51;102276.28;4966071;28;46346;-71
2023/05/17 10:18:47;;;;;;;;;10.33;8.33;;;;;17.52;40.25;102260.34;4960786;28;45359;-72
2023/05/17 10:21:17;;;;;;;;;5.00;5.00;;;;;17.46;40.56;102223.28;4962743;28;45457;-72
2023/05/17 10:23:45;;;;;;;;;7.33;6.00;;;;;17.83;40.00;102260.28;4964497;28;45516;-72
2023/05/17 10:26:17;;;;;;;;;6.00;5.00;;;;;17.85;39.61;102239.97;4976754;28;46086;-73
2023/05/17 10:28:46;;;;;;;;;9.33;5.00;;;;;17.97;39.18;102239.03;4956056;28;45831;-72
2023/05/17 10:31:16;;;;;;;;;12.33;6.00;;;;;18.00;38.84;102242.53;4955769;28;45348;-72
2023/05/17 10:33:45;;;;;;;;;6.33;5.33;;;;;18.01;38.60;102235.50;4957271;28;45503;-73
2023/05/17 10:36:16;;;;;;;;;8.00;5.33;;;;;17.81;39.24;102201.13;4965785;28;45578;-73
2023/05/17 10:38:42;;;;;;;;;9.67;8.33;;;;;18.18;39.40;102223.00;4960884;28;45823;-73
2023/05/17 10:41:14;;;;;;;;;5.33;5.00;;;;;18.37;38.79;102229.09;4963838;28;45586;-74
2023/05/17 10:43:42;;;;;;;;;10.00;7.67;;;;;18.05;38.32;102178.88;4959088;28;45274;-71
2023/05/17 10:46:20;;;;;;;;;9.33;7.00;;;;;18.35;39.06;102214.94;4962776;28;46259;-72
2023/05/17 10:48:57;;;;;;;;;10.00;7.00;;;;;18.57;38.95;102215.66;4974800;28;45443;-72
2023/05/17 10:51:32;;;;;;;;;14.33;10.00;;;;;18.67;38.20;102220.91;4955855;28;45532;-73
2023/05/17 10:54:17;;;;;;;;;6.00;5.67;;;;;18.80;35.84;102219.94;4972324;28;45385;-71
2023/05/17 10:56:54;;;;;;;;;6.33;5.00;;;;;18.87;36.07;102212.81;4967011;28;45352;-73
2023/05/17 10:59:26;;;;;;;;;4.00;4.00;;;;;18.65;36.02;102176.69;4964775;28;45463;-73
2023/05/17 11:02:05;;;;;;;;;5.67;4.00;;;;;18.62;36.27;102216.50;4968621;28;46539;-72
2023/05/17 11:04:37;;;;;;;;;8.00;5.00;;;;;18.42;37.17;102213.13;4955742;28;45298;-73
2023/05/17 11:07:20;;;;;;;;;8.00;5.33;;;;;18.61;37.53;102219.19;4957730;28;46130;-71
2023/05/17 11:10:09;;;;;;;;;6.33;5.67;;;;;18.61;37.47;102216.53;4950916;28;45763;-73
2023/05/17 11:12:45;;;;;;;;;7.00;7.00;;;;;18.92;37.51;102209.22;4954106;28;45806;-72
2023/05/17 11:15:15;;;;;;;;;9.67;6.67;;;;;19.04;36.80;102210.88;4960668;28;45660;-73
2023/05/17 11:17:54;;;;;;;;;16.00;13.67;;;;;19.20;36.81;102216.91;4954575;28;45473;-73
2023/05/17 11:20:30;;;;;;;;;24.67;15.00;;;;;19.30;36.58;102207.94;4962084;28;45428;-72
2023/05/17 11:23:06;;;;;;;;;15.00;11.67;;;;;19.36;36.37;102213.22;4962326;28;45705;-73